Time;durP1;ratioP1;P1;durP2;ratioP2;P2;SDS_P1;SDS_P2;PMS_P1;PMS_P2;Temp;Humidity;BMP_temperature;BMP_pressure;BME280_temperature;BME280_humidity;BME280_pressure;Samples;Min_cycle;Max_cycle;Signal;HPM_P1;HPM_P2
2021/01/10 06:00:52;;;;;;;34.77;13.03;;;0.70;97.30;;;;;;5791308;23;20792;-74
2021/01/10 06:03:22;;;;;;;45.80;14.60;;;0.70;97.30;;;;;;4916037;29;20421;-74
2021/01/10 06:06:00;;;;;;;33.77;14.30;;;0.70;97.30;;;;;;4916907;29;20956;-74
2021/01/10 06:08:33;;;;;;;38.70;13.73;;;0.70;97.30;;;;;;4916597;29;20448;-74
2021/01/10 06:11:27;;;;;;;42.83;14.70;;;0.60;97.30;;;;;;4910614;29;20429;-73
2021/01/10 06:14:00;;;;;;;42.17;14.27;;;0.60;97.30;;;;;;4898828;29;20824;-74
2021/01/10 06:16:36;;;;;;;38.83;14.60;;;0.60;97.30;;;;;;4897805;29;20417;-74
2021/01/10 06:19:07;;;;;;;37.47;14.07;;;0.50;97.30;;;;;;4897319;29;20552;-74
2021/01/10 06:21:34;;;;;;;31.63;12.43;;;0.50;97.30;;;;;;4897658;29;20450;-74
2021/01/10 06:24:05;;;;;;;30.60;11.67;;;0.50;97.30;;;;;;4897475;29;20438;-74
2021/01/10 06:26:32;;;;;;;37.93;14.10;;;0.50;97.30;;;;;;4897531;29;20429;-74
2021/01/10 06:29:08;;;;;;;38.87;14.50;;;0.50;97.30;;;;;;4897505;29;20425;-74
2021/01/10 06:31:36;;;;;;;37.53;13.70;;;0.50;97.30;;;;;;4897486;29;21024;-74
2021/01/10 06:34:07;;;;;;;38.10;14.40;;;0.40;97.30;;;;;;4897685;29;20532;-74
2021/01/10 06:36:39;;;;;;;38.80;12.63;;;0.30;97.30;;;;;;4898140;29;20474;-74
2021/01/10 06:39:10;;;;;;;35.67;13.30;;;0.30;97.30;;;;;;4896978;29;20453;-74
2021/01/10 06:42:11;;;;;;;37.73;14.83;;;0.30;97.30;;;;;;4897317;29;20445;-74
2021/01/10 06:44:43;;;;;;;35.97;14.13;;;0.20;97.30;;;;;;4898320;29;20410;-74
2021/01/10 06:47:17;;;;;;;42.87;15.07;;;0.20;97.30;;;;;;4897800;29;20429;-74
2021/01/10 06:49:43;;;;;;;40.00;12.77;;;0.20;97.30;;;;;;4897601;29;20444;-74
2021/01/10 06:52:11;;;;;;;44.10;14.97;;;0.10;97.30;;;;;;4897487;29;20450;-74
2021/01/10 06:54:41;;;;;;;41.53;14.07;;;0.10;97.30;;;;;;4897186;29;20422;-74
2021/01/10 06:57:08;;;;;;;40.20;13.70;;;0.10;97.30;;;;;;4898202;29;20971;-74
2021/01/10 06:59:57;;;;;;;40.43;15.07;;;0.10;97.30;;;;;;4897194;29;20830;-74
2021/01/10 07:02:23;;;;;;;43.73;13.93;;;0.10;97.30;;;;;;4898161;29;20454;-74
2021/01/10 07:04:54;;;;;;;38.40;14.53;;;0.00;97.30;;;;;;4897381;29;20420;-75
2021/01/10 07:07:52;;;;;;;47.17;14.20;;;0.00;97.30;;;;;;4896766;29;20455;-75
2021/01/10 07:10:25;;;;;;;37.93;14.50;;;0.00;97.30;;;;;;4886522;29;20416;-75
2021/01/10 07:12:51;;;;;;;36.37;13.60;;;0.00;97.30;;;;;;4896987;29;20923;-75
2021/01/10 07:15:24;;;;;;;41.90;14.10;;;0.00;97.30;;;;;;4896940;29;20424;-75
2021/01/10 07:18:26;;;;;;;41.93;15.23;;;0.00;97.30;;;;;;4896308;29;20271;-75
2021/01/10 07:20:52;;;;;;;38.67;16.60;;;0.00;97.30;;;;;;4900579;29;20469;-75
2021/01/10 07:23:25;;;;;;;36.90;13.27;;;0.00;97.30;;;;;;4898258;29;20433;-74
2021/01/10 07:25:51;;;;;;;42.23;14.17;;;0.00;97.30;;;;;;4896087;29;20177;-75
2021/01/10 07:28:35;;;;;;;43.50;15.33;;;0.00;97.30;;;;;;4896591;29;20420;-75
2021/01/10 07:31:19;;;;;;;34.77;13.37;;;-0.10;97.30;;;;;;4896507;29;20818;-75
2021/01/10 07:33:46;;;;;;;44.47;15.50;;;-0.10;97.30;;;;;;4896421;29;20456;-75
2021/01/10 07:36:12;;;;;;;46.57;16.13;;;-0.10;97.30;;;;;;4898533;29;20413;-75
2021/01/10 07:38:40;;;;;;;41.27;14.83;;;-0.10;97.30;;;;;;4897187;29;20420;-75
2021/01/10 07:41:42;;;;;;;38.63;13.07;;;-0.10;97.30;;;;;;4898694;29;20546;-75
2021/01/10 07:44:08;;;;;;;33.00;12.87;;;-0.10;97.30;;;;;;4862042;29;20423;-75
2021/01/10 07:46:59;;;;;;;34.57;11.90;;;-0.20;97.30;;;;;;4915005;29;20420;-75
2021/01/10 07:49:32;;;;;;;28.50;10.47;;;-0.30;97.30;;;;;;4901025;29;20458;-75
2021/01/10 07:52:02;;;;;;;22.50;10.00;;;-0.40;97.30;;;;;;4902322;29;20444;-75
2021/01/10 07:54:48;;;;;;;21.37;7.80;;;-0.50;97.30;;;;;;4902569;29;20426;-75
2021/01/10 07:57:25;;;;;;;22.33;9.50;;;-0.50;97.30;;;;;;4899379;29;20418;-75
2021/01/10 08:00:22;;;;;;;24.70;10.03;;;-0.60;97.30;;;;;;4900827;29;20548;-75
2021/01/10 08:02:52;;;;;;;24.63;8.63;;;-0.60;97.30;;;;;;4924486;29;20433;-75
2021/01/10 08:05:28;;;;;;;23.90;8.40;;;-0.60;97.30;;;;;;4901520;29;20405;-75
2021/01/10 08:08:00;;;;;;;17.67;7.80;;;-0.70;97.30;;;;;;4899782;29;20934;-75
2021/01/10 08:10:40;;;;;;;19.33;7.57;;;-0.70;97.30;;;;;;4900575;29;20417;-75
2021/01/10 08:13:30;;;;;;;24.73;10.47;;;-0.70;97.30;;;;;;4900931;29;20429;-75
2021/01/10 08:15:56;;;;;;;18.47;7.87;;;-0.60;97.30;;;;;;4900046;29;20507;-75
2021/01/10 08:18:23;;;;;;;26.03;9.50;;;-0.50;97.30;;;;;;4901451;29;20421;-75
2021/01/10 08:20:53;;;;;;;32.60;11.53;;;-0.50;97.30;;;;;;4900283;29;20461;-76
2021/01/10 08:23:23;;;;;;;25.97;9.93;;;-0.50;97.30;;;;;;4900537;29;20429;-75
2021/01/10 08:26:01;;;;;;;40.57;15.17;;;-0.40;97.30;;;;;;4900135;29;20923;-75
2021/01/10 08:28:35;;;;;;;31.73;12.70;;;-0.30;97.30;;;;;;4899938;29;20481;-75
2021/01/10 08:31:06;;;;;;;35.60;12.40;;;-0.20;97.30;;;;;;4900001;29;20516;-76
2021/01/10 08:33:33;;;;;;;36.00;13.40;;;-0.10;97.30;;;;;;4899708;29;20489;-75
2021/01/10 08:36:17;;;;;;;25.27;10.93;;;0.00;97.30;;;;;;4899563;29;20510;-75
2021/01/10 08:39:01;;;;;;;35.47;13.00;;;0.10;97.30;;;;;;4897905;29;20551;-75
2021/01/10 08:41:35;;;;;;;41.20;14.63;;;0.10;97.30;;;;;;4898986;29;20449;-75
2021/01/10 08:44:05;;;;;;;36.63;14.33;;;0.20;97.30;;;;;;4899157;29;20410;-75
2021/01/10 08:46:32;;;;;;;48.90;15.30;;;0.30;97.30;;;;;;4899276;29;20968;-75
2021/01/10 08:49:00;;;;;;;46.57;17.50;;;0.40;97.30;;;;;;4899254;29;20780;-75
2021/01/10 08:51:33;;;;;;;44.83;15.90;;;0.40;97.30;;;;;;4899308;29;20429;-76
2021/01/10 08:54:06;;;;;;;42.83;15.73;;;0.50;97.30;;;;;;4899184;29;20421;-76
2021/01/10 08:56:33;;;;;;;47.23;17.70;;;0.50;97.30;;;;;;4897155;29;20427;-76
2021/01/10 08:58:59;;;;;;;45.73;17.33;;;0.60;97.30;;;;;;4897773;29;20548;-76
2021/01/10 09:01:26;;;;;;;42.60;15.53;;;0.70;97.30;;;;;;4898749;29;20549;-76
2021/01/10 09:04:07;;;;;;;35.80;14.73;;;0.70;97.30;;;;;;4898824;29;20185;-76
2021/01/10 09:06:35;;;;;;;43.90;17.40;;;0.70;97.30;;;;;;4896590;29;20416;-76
2021/01/10 09:09:26;;;;;;;46.87;15.63;;;0.70;97.30;;;;;;4898612;29;20421;-76
2021/01/10 09:12:06;;;;;;;44.70;15.90;;;0.80;97.30;;;;;;4881505;29;20485;-76
2021/01/10 09:14:41;;;;;;;40.43;14.50;;;0.90;97.30;;;;;;4899014;29;20473;-76
2021/01/10 09:17:07;;;;;;;49.00;16.97;;;1.00;97.30;;;;;;4898775;29;20417;-76
2021/01/10 09:19:35;;;;;;;38.67;13.83;;;1.10;97.30;;;;;;4898576;29;20472;-76
2021/01/10 09:22:02;;;;;;;42.27;15.67;;;1.10;97.30;;;;;;4900016;29;20430;-76
2021/01/10 09:24:31;;;;;;;42.37;16.30;;;1.20;97.30;;;;;;4898518;29;20421;-76
2021/01/10 09:27:11;;;;;;;41.00;15.70;;;1.30;97.30;;;;;;4898681;29;20425;-76
2021/01/10 09:29:37;;;;;;;42.20;16.10;;;1.30;97.30;;;;;;4899539;29;20413;-76
2021/01/10 09:32:06;;;;;;;45.93;16.50;;;1.30;97.30;;;;;;4897958;29;20993;-76
2021/01/10 09:34:31;;;;;;;41.50;16.00;;;1.40;97.30;;;;;;4899307;29;20979;-76
2021/01/10 09:37:15;;;;;;;40.47;15.67;;;1.50;97.30;;;;;;4898508;29;20516;-76
2021/01/10 09:39:43;;;;;;;44.13;16.47;;;1.50;97.30;;;;;;4898207;29;20556;-75
2021/01/10 09:42:11;;;;;;;47.47;16.47;;;1.60;97.30;;;;;;4898201;29;20520;-76
2021/01/10 09:44:37;;;;;;;46.23;16.90;;;1.60;97.30;;;;;;4898190;29;20422;-76
2021/01/10 09:47:03;;;;;;;44.83;17.77;;;1.70;97.30;;;;;;4898086;29;20500;-76
2021/01/10 09:49:34;;;;;;;45.60;16.40;;;1.70;97.30;;;;;;4899423;29;20481;-76
2021/01/10 09:52:06;;;;;;;41.97;16.20;;;1.80;97.30;;;;;;4898257;29;20889;-76
2021/01/10 09:54:35;;;;;;;43.93;16.63;;;1.90;97.30;;;;;;4898366;29;20418;-76
2021/01/10 09:57:13;;;;;;;40.37;15.17;;;2.00;97.30;;;;;;4897864;29;20432;-76
2021/01/10 09:59:44;;;;;;;46.70;19.10;;;2.00;97.30;;;;;;4897834;29;20488;-75
2021/01/10 10:02:20;;;;;;;46.00;16.17;;;2.20;97.30;;;;;;4897430;29;20453;-76
2021/01/10 10:04:48;;;;;;;44.13;15.83;;;2.30;97.30;;;;;;4898768;29;20838;-75
2021/01/10 10:07:29;;;;;;;43.20;18.80;;;2.40;97.30;;;;;;4897250;29;20421;-75
2021/01/10 10:09:54;;;;;;;41.47;16.60;;;2.40;97.30;;;;;;4897176;29;20429;-76
2021/01/10 10:12:24;;;;;;;48.57;17.10;;;2.30;97.30;;;;;;4897994;29;20501;-75
2021/01/10 10:15:06;;;;;;;41.90;16.60;;;2.30;97.30;;;;;;4897313;29;20493;-75
2021/01/10 10:17:37;;;;;;;47.37;17.10;;;2.20;97.30;;;;;;4897347;29;20429;-75
2021/01/10 10:20:05;;;;;;;42.37;15.53;;;2.20;97.30;;;;;;4898637;29;20484;-75
2021/01/10 10:22:35;;;;;;;45.10;17.30;;;2.20;97.30;;;;;;4897574;29;20545;-75
2021/01/10 10:25:04;;;;;;;38.60;16.60;;;2.30;97.30;;;;;;4897513;29;20915;-76
2021/01/10 10:27:31;;;;;;;40.40;15.97;;;2.40;97.30;;;;;;4898868;29;20418;-75
2021/01/10 10:29:58;;;;;;;39.90;16.67;;;2.60;97.30;;;;;;4898497;29;20418;-75
2021/01/10 10:32:24;;;;;;;36.67;15.70;;;2.70;97.30;;;;;;4889119;29;20526;-75
2021/01/10 10:34:51;;;;;;;40.00;17.70;;;2.80;97.30;;;;;;4898164;29;20426;-76
2021/01/10 10:37:17;;;;;;;46.13;17.53;;;3.00;97.30;;;;;;4898458;29;20488;-76
2021/01/10 10:39:44;;;;;;;34.17;15.77;;;3.00;97.30;;;;;;4897051;29;20858;-76
2021/01/10 10:42:11;;;;;;;39.00;16.60;;;3.10;97.30;;;;;;4897063;29;20453;-76
2021/01/10 10:44:37;;;;;;;34.60;16.80;;;3.20;97.30;;;;;;4897229;29;20422;-75
2021/01/10 10:47:03;;;;;;;34.60;16.30;;;3.40;97.30;;;;;;4897624;29;20561;-76
2021/01/10 10:49:30;;;;;;;37.63;17.17;;;3.50;97.30;;;;;;4897303;29;20785;-76
2021/01/10 10:51:56;;;;;;;29.50;13.37;;;3.50;97.30;;;;;;4897086;29;20453;-76
2021/01/10 10:54:22;;;;;;;31.60;14.30;;;3.40;97.30;;;;;;4897235;29;20788;-76
2021/01/10 10:56:48;;;;;;;35.60;15.90;;;3.30;97.30;;;;;;4897102;29;20422;-76
2021/01/10 10:59:14;;;;;;;32.50;14.80;;;3.10;97.30;;;;;;4897739;29;20201;-76
2021/01/10 11:01:49;;;;;;;34.23;15.53;;;3.00;97.30;;;;;;4896229;29;20213;-76
2021/01/10 11:04:17;;;;;;;31.60;14.03;;;3.20;97.30;;;;;;4899024;29;20839;-75
2021/01/10 11:06:42;;;;;;;30.83;14.53;;;3.50;97.30;;;;;;4897267;29;20425;-76
2021/01/10 11:09:10;;;;;;;31.20;15.37;;;3.90;97.30;;;;;;4896871;29;20422;-76
2021/01/10 11:11:40;;;;;;;31.60;15.70;;;4.20;97.30;;;;;;4896920;29;20201;-76
2021/01/10 11:14:07;;;;;;;27.67;12.67;;;4.40;97.30;;;;;;4897596;29;20420;-77
2021/01/10 11:16:37;;;;;;;25.77;12.87;;;4.40;97.30;;;;;;4898207;29;20410;-76
2021/01/10 11:19:05;;;;;;;25.87;12.60;;;4.50;97.30;;;;;;4898450;29;20555;-77
2021/01/10 11:21:37;;;;;;;29.17;13.20;;;4.60;97.30;;;;;;4899292;29;20449;-76
2021/01/10 11:24:04;;;;;;;25.00;12.93;;;4.60;97.30;;;;;;4900254;29;20460;-77
2021/01/10 11:26:29;;;;;;;26.10;12.40;;;4.70;97.30;;;;;;4900753;29;20472;-76
2021/01/10 11:28:56;;;;;;;32.00;14.30;;;4.80;97.30;;;;;;4900611;29;20932;-76
2021/01/10 11:31:26;;;;;;;28.40;13.03;;;5.20;97.30;;;;;;4900555;29;20193;-76
2021/01/10 11:33:53;;;;;;;30.80;14.10;;;5.50;97.30;;;;;;4900967;29;20429;-76
2021/01/10 11:36:19;;;;;;;32.83;14.40;;;5.70;97.30;;;;;;4902003;29;20413;-76
2021/01/10 11:38:51;;;;;;;29.70;13.70;;;5.80;97.30;;;;;;4900502;29;20508;-76
2021/01/10 11:41:18;;;;;;;30.47;14.57;;;6.00;97.30;;;;;;4900466;29;20986;-75
2021/01/10 11:43:44;;;;;;;31.87;15.87;;;6.10;97.30;;;;;;4901909;29;20417;-76
2021/01/10 11:46:11;;;;;;;42.70;16.97;;;6.30;97.30;;;;;;4900477;29;20436;-76
2021/01/10 11:48:41;;;;;;;37.17;16.30;;;6.30;97.30;;;;;;4900208;29;20710;-76
2021/01/10 11:51:08;;;;;;;33.57;15.63;;;6.20;97.30;;;;;;4901458;29;20963;-76
2021/01/10 11:53:33;;;;;;;35.50;15.33;;;6.00;97.30;;;;;;4900399;29;20481;-76
2021/01/10 11:56:00;;;;;;;42.03;17.77;;;5.90;97.30;;;;;;4900235;29;20429;-76
2021/01/10 11:58:27;;;;;;;39.77;16.90;;;5.80;97.30;;;;;;4900036;29;20177;-76
2021/01/10 12:00:53;;;;;;;42.37;18.20;;;5.60;97.30;;;;;;4899833;29;20473;-76
2021/01/10 12:03:20;;;;;;;39.23;17.27;;;5.60;97.30;;;;;;4900012;29;20469;-76
2021/01/10 12:05:46;;;;;;;38.50;17.20;;;5.30;97.30;;;;;;4900129;29;20425;-76
2021/01/10 12:08:12;;;;;;;37.53;16.07;;;5.20;97.30;;;;;;4899654;29;20413;-76
2021/01/10 12:10:39;;;;;;;39.30;16.60;;;5.30;97.30;;;;;;4899582;29;20838;-76
2021/01/10 12:13:04;;;;;;;39.70;17.20;;;5.40;97.30;;;;;;4899901;29;20504;-76
2021/01/10 12:15:33;;;;;;;41.10;17.67;;;5.40;97.30;;;;;;4899725;29;20863;-76
2021/01/10 12:18:05;;;;;;;40.50;17.17;;;5.40;97.30;;;;;;4899705;29;20605;-75
2021/01/10 12:20:32;;;;;;;41.90;15.37;;;5.20;97.30;;;;;;4899673;29;20547;-76
2021/01/10 12:22:58;;;;;;;44.30;18.43;;;4.60;97.30;;;;;;4900948;29;20566;-76
2021/01/10 12:25:24;;;;;;;38.67;16.60;;;4.10;97.30;;;;;;4899849;29;20836;-75
2021/01/10 12:27:50;;;;;;;38.97;16.77;;;3.90;97.30;;;;;;4899544;29;20436;-75
2021/01/10 12:30:17;;;;;;;44.87;17.40;;;3.50;97.30;;;;;;4899430;29;20421;-76
2021/01/10 12:32:43;;;;;;;43.83;17.10;;;3.40;97.30;;;;;;4899145;29;20434;-76
2021/01/10 12:35:11;;;;;;;41.03;16.20;;;3.30;97.30;;;;;;4899687;29;20428;-75
2021/01/10 12:37:37;;;;;;;57.57;17.17;;;3.10;97.30;;;;;;4896468;29;20683;-75
2021/01/10 12:40:08;;;;;;;49.03;16.60;;;2.90;97.30;;;;;;4895526;29;20473;-75
2021/01/10 12:42:34;;;;;;;45.90;16.40;;;2.40;97.30;;;;;;4900678;29;20421;-75
2021/01/10 12:45:00;;;;;;;47.07;17.20;;;2.20;97.30;;;;;;4900769;29;20991;-75
2021/01/10 12:47:26;;;;;;;42.00;17.03;;;2.10;97.30;;;;;;4899192;29;20182;-75
2021/01/10 12:49:51;;;;;;;42.23;16.87;;;2.00;97.30;;;;;;4899551;29;20761;-75
2021/01/10 12:52:17;;;;;;;42.57;16.63;;;2.10;97.30;;;;;;4899268;29;20213;-75
2021/01/10 12:54:43;;;;;;;47.40;18.17;;;2.00;97.30;;;;;;4899520;29;20181;-75
2021/01/10 12:57:08;;;;;;;47.83;17.30;;;1.90;97.30;;;;;;4899078;29;20240;-75
2021/01/10 12:59:34;;;;;;;51.50;15.70;;;1.80;97.30;;;;;;4900136;29;20211;-75
2021/01/10 13:02:00;;;;;;;37.80;14.40;;;1.70;97.30;;;;;;4898849;29;20268;-75
2021/01/10 13:04:25;;;;;;;45.07;16.17;;;1.40;97.30;;;;;;4899121;29;20212;-75
2021/01/10 13:06:56;;;;;;;54.70;16.40;;;1.20;97.30;;;;;;4898861;29;20181;-76
2021/01/10 13:09:21;;;;;;;47.07;15.47;;;0.90;97.30;;;;;;4899018;29;20233;-75
2021/01/10 13:11:47;;;;;;;45.07;16.63;;;0.80;97.30;;;;;;4898723;29;20441;-75
2021/01/10 13:14:13;;;;;;;45.57;16.10;;;0.70;97.30;;;;;;4898894;29;20181;-75
2021/01/10 13:16:38;;;;;;;40.97;15.67;;;0.70;97.30;;;;;;4898715;29;20647;-75
2021/01/10 13:19:04;;;;;;;41.37;16.40;;;0.90;97.30;;;;;;4898486;29;20201;-75
2021/01/10 13:21:33;;;;;;;42.10;14.57;;;0.90;97.30;;;;;;4899975;29;20549;-74
2021/01/10 13:24:02;;;;;;;46.90;15.23;;;0.90;97.30;;;;;;4899262;29;20181;-75
2021/01/10 13:26:29;;;;;;;38.73;15.10;;;0.80;97.30;;;;;;4898278;29;20955;-75
2021/01/10 13:28:57;;;;;;;62.27;16.53;;;0.90;97.30;;;;;;4899602;29;20414;-75
2021/01/10 13:31:23;;;;;;;59.17;16.77;;;0.70;97.30;;;;;;4898548;29;20528;-75
2021/01/10 13:33:49;;;;;;;71.73;17.03;;;0.50;97.30;;;;;;4898528;29;20919;-75
2021/01/10 13:36:21;;;;;;;73.10;16.77;;;0.40;97.30;;;;;;4898773;29;20418;-75
2021/01/10 13:38:47;;;;;;;56.03;15.53;;;0.30;97.30;;;;;;4898117;29;20516;-75
2021/01/10 13:41:17;;;;;;;61.47;16.70;;;0.20;97.30;;;;;;4898356;29;20517;-74
2021/01/10 13:43:43;;;;;;;47.17;16.53;;;0.10;97.30;;;;;;4897728;29;20500;-75
2021/01/10 13:46:16;;;;;;;54.73;14.77;;;0.10;97.30;;;;;;4898331;29;20423;-75
2021/01/10 13:48:43;;;;;;;54.63;15.23;;;0.10;97.30;;;;;;4898046;29;20731;-75
2021/01/10 13:51:18;;;;;;;51.27;15.33;;;0.10;97.30;;;;;;4898207;29;20450;-75
2021/01/10 13:53:45;;;;;;;45.93;15.30;;;0.10;97.30;;;;;;4899175;29;20438;-75
2021/01/10 13:56:14;;;;;;;41.70;15.30;;;0.10;97.30;;;;;;4899766;29;20931;-75
2021/01/10 13:58:40;;;;;;;45.73;14.40;;;0.10;97.30;;;;;;4897527;29;20456;-75
2021/01/10 14:01:06;;;;;;;34.37;14.70;;;0.00;97.30;;;;;;4899289;29;20457;-74
2021/01/10 14:03:32;;;;;;;46.63;14.97;;;0.00;97.30;;;;;;4898150;29;20181;-74
2021/01/10 14:05:59;;;;;;;39.83;13.57;;;0.00;97.30;;;;;;4898165;29;20606;-74
2021/01/10 14:08:25;;;;;;;63.27;15.37;;;-0.10;97.30;;;;;;4897998;29;20437;-74
2021/01/10 14:10:51;;;;;;;47.10;15.77;;;-0.10;97.30;;;;;;4899797;29;20442;-73
2021/01/10 14:13:17;;;;;;;49.20;15.33;;;-0.20;97.30;;;;;;4898138;29;20702;-74
2021/01/10 14:15:42;;;;;;;53.70;17.87;;;-0.20;97.30;;;;;;4897857;29;20449;-76
2021/01/10 14:18:08;;;;;;;55.73;17.07;;;-0.20;97.30;;;;;;4897573;29;20185;-75
2021/01/10 14:20:34;;;;;;;42.90;17.90;;;0.00;97.30;;;;;;4897546;29;20232;-76
2021/01/10 14:22:59;;;;;;;46.60;17.20;;;-0.10;97.30;;;;;;4897747;29;20236;-76
2021/01/10 14:25:25;;;;;;;39.83;15.90;;;-0.20;97.30;;;;;;4897421;29;20186;-76
2021/01/10 14:27:50;;;;;;;43.17;15.87;;;-0.20;97.30;;;;;;4897618;29;20551;-75
2021/01/10 14:30:18;;;;;;;44.87;15.83;;;0.00;97.30;;;;;;4897605;29;20279;-76
2021/01/10 14:32:44;;;;;;;41.27;16.70;;;0.30;97.30;;;;;;4897750;29;20185;-76
2021/01/10 14:35:10;;;;;;;46.73;16.93;;;0.70;97.30;;;;;;4897337;29;20421;-75
2021/01/10 14:37:35;;;;;;;39.40;17.30;;;0.90;97.30;;;;;;4897449;29;20505;-76
2021/01/10 14:40:01;;;;;;;41.63;16.50;;;1.10;97.30;;;;;;4898502;29;20512;-75
2021/01/10 14:42:28;;;;;;;43.37;17.90;;;1.30;97.30;;;;;;4897264;29;20328;-75
2021/01/10 14:44:54;;;;;;;37.60;16.53;;;1.10;97.30;;;;;;4897300;29;20186;-75
2021/01/10 14:47:19;;;;;;;36.43;15.87;;;1.00;97.30;;;;;;4897217;29;20421;-75
2021/01/10 14:49:46;;;;;;;34.60;15.00;;;1.00;97.30;;;;;;4897766;29;20221;-75
2021/01/10 14:52:11;;;;;;;37.70;14.50;;;1.00;97.30;;;;;;4897836;29;20205;-75
2021/01/10 14:54:37;;;;;;;31.20;15.03;;;1.10;97.30;;;;;;4897209;29;20469;-75
2021/01/10 14:57:03;;;;;;;35.83;15.23;;;1.10;97.30;;;;;;4898577;29;20188;-75
2021/01/10 14:59:29;;;;;;;37.13;16.03;;;1.20;97.30;;;;;;4896818;29;20209;-75
2021/01/10 15:01:54;;;;;;;46.33;16.73;;;1.10;97.30;;;;;;4896971;29;20468;-75
2021/01/10 15:04:20;;;;;;;30.83;14.37;;;1.00;97.30;;;;;;4896958;29;20181;-74
2021/01/10 15:06:46;;;;;;;40.47;16.27;;;0.80;97.30;;;;;;4897249;29;20185;-74
2021/01/10 15:09:11;;;;;;;36.13;15.17;;;0.60;97.30;;;;;;4897016;29;20212;-75
2021/01/10 15:11:37;;;;;;;40.43;15.50;;;0.50;97.30;;;;;;4898161;29;20224;-75
2021/01/10 15:14:05;;;;;;;39.93;15.70;;;0.40;97.30;;;;;;4896840;29;20207;-74
2021/01/10 15:16:31;;;;;;;39.90;14.27;;;0.30;97.30;;;;;;4897090;29;20422;-74
2021/01/10 15:18:57;;;;;;;39.20;17.40;;;0.30;97.30;;;;;;4896409;29;20481;-74
2021/01/10 15:21:23;;;;;;;36.40;15.37;;;0.20;97.30;;;;;;4897884;29;20453;-73
2021/01/10 15:23:49;;;;;;;44.57;17.83;;;0.10;97.30;;;;;;4897958;29;20926;-74
2021/01/10 15:26:15;;;;;;;38.43;15.40;;;0.10;97.30;;;;;;4896666;29;20421;-74
2021/01/10 15:28:41;;;;;;;36.33;15.13;;;0.10;97.30;;;;;;4896402;29;20654;-74
2021/01/10 15:31:07;;;;;;;38.60;16.50;;;0.00;97.30;;;;;;4896410;29;20205;-74
2021/01/10 15:33:34;;;;;;;47.03;17.37;;;0.00;97.30;;;;;;4893260;29;20437;-75
2021/01/10 15:36:02;;;;;;;41.93;17.80;;;-0.10;97.30;;;;;;4895034;29;21006;-72
2021/01/10 15:38:41;;;;;;;37.00;14.77;;;-0.10;97.30;;;;;;4894236;29;20517;-74
2021/01/10 15:41:20;;;;;;;37.13;16.93;;;-0.20;97.30;;;;;;4895982;29;20456;-74
2021/01/10 15:43:46;;;;;;;39.33;16.07;;;-0.20;97.30;;;;;;4896009;29;21111;-74
2021/01/10 15:46:15;;;;;;;42.57;16.57;;;-0.30;97.30;;;;;;4896654;29;20421;-74
2021/01/10 15:48:41;;;;;;;58.90;18.10;;;-0.40;97.30;;;;;;4896181;29;20413;-74
2021/01/10 15:51:07;;;;;;;36.97;16.23;;;-0.40;97.30;;;;;;4896433;29;20812;-74
2021/01/10 15:53:34;;;;;;;46.10;18.03;;;-0.40;97.30;;;;;;4896748;29;20799;-74
2021/01/10 15:56:00;;;;;;;41.13;16.97;;;-0.40;97.30;;;;;;4896183;29;20421;-74
2021/01/10 15:58:26;;;;;;;69.77;18.57;;;-0.50;97.30;;;;;;4896005;29;20413;-74
2021/01/10 16:00:52;;;;;;;44.67;19.27;;;-0.30;97.30;;;;;;4896372;29;20480;-74
2021/01/10 16:03:18;;;;;;;44.03;17.33;;;-0.10;97.30;;;;;;4897391;29;20182;-74
2021/01/10 16:05:44;;;;;;;45.33;18.23;;;-0.20;97.30;;;;;;4896243;29;20497;-73
2021/01/10 16:08:10;;;;;;;42.60;16.40;;;-0.20;97.30;;;;;;4900366;29;20453;-74
2021/01/10 16:10:38;;;;;;;44.33;17.53;;;-0.20;97.30;;;;;;4902580;29;20548;-73
2021/01/10 16:13:04;;;;;;;39.80;16.43;;;-0.30;97.30;;;;;;4905186;29;20575;-73
2021/01/10 16:15:31;;;;;;;38.93;17.43;;;-0.40;97.30;;;;;;4902837;29;20678;-75
2021/01/10 16:17:58;;;;;;;42.47;18.53;;;-0.50;97.30;;;;;;4899837;29;20447;-74
2021/01/10 16:20:24;;;;;;;43.67;17.97;;;-0.60;97.30;;;;;;4899845;29;20481;-75
2021/01/10 16:22:50;;;;;;;45.00;18.23;;;-0.70;97.30;;;;;;4901308;29;20424;-74
2021/01/10 16:25:15;;;;;;;44.87;17.67;;;-0.70;97.30;;;;;;4899682;29;20433;-74
2021/01/10 16:27:41;;;;;;;46.17;17.23;;;-0.80;97.30;;;;;;4899464;29;20264;-74
2021/01/10 16:30:10;;;;;;;41.53;16.40;;;-0.80;97.30;;;;;;4899728;29;20181;-74
2021/01/10 16:32:36;;;;;;;45.23;17.50;;;-0.80;97.30;;;;;;4900973;29;20193;-75
2021/01/10 16:35:04;;;;;;;40.67;17.00;;;-0.90;97.30;;;;;;4899267;29;20535;-73
2021/01/10 16:37:30;;;;;;;58.40;19.17;;;-0.90;97.30;;;;;;4899600;29;20565;-74
2021/01/10 16:39:56;;;;;;;45.03;17.67;;;-1.00;97.30;;;;;;4899545;29;20551;-74
2021/01/10 16:42:23;;;;;;;53.43;19.17;;;-1.00;97.30;;;;;;4900392;29;20198;-74
2021/01/10 16:44:54;;;;;;;40.73;18.93;;;-1.10;97.30;;;;;;4898791;29;20200;-74
2021/01/10 16:47:20;;;;;;;48.90;20.90;;;-1.20;97.30;;;;;;4898617;29;20952;-74
2021/01/10 16:49:46;;;;;;;43.33;18.77;;;-1.20;97.30;;;;;;4899022;29;20432;-74
2021/01/10 16:52:13;;;;;;;46.97;19.50;;;-1.20;97.30;;;;;;4899225;29;20498;-73
2021/01/10 16:54:39;;;;;;;52.63;20.40;;;-1.20;97.30;;;;;;4899187;29;20800;-74
2021/01/10 16:57:08;;;;;;;53.20;21.50;;;-1.20;97.30;;;;;;4899093;29;20425;-74
2021/01/10 16:59:35;;;;;;;54.10;20.27;;;-1.20;97.30;;;;;;4899042;29;20468;-74
2021/01/10 17:02:01;;;;;;;44.10;20.27;;;-1.20;97.30;;;;;;4898923;29;20449;-74
2021/01/10 17:04:26;;;;;;;54.17;21.73;;;-1.20;97.30;;;;;;4898616;29;20436;-73
2021/01/10 17:06:52;;;;;;;54.13;20.90;;;-1.20;97.30;;;;;;4882125;29;20550;-75
2021/01/10 17:09:18;;;;;;;53.67;21.20;;;-1.30;97.30;;;;;;4900613;29;20413;-75
2021/01/10 17:11:46;;;;;;;52.70;22.00;;;-1.30;97.30;;;;;;4898497;29;20207;-74
2021/01/10 17:14:14;;;;;;;47.40;19.47;;;-1.30;97.30;;;;;;4898881;29;20284;-74
2021/01/10 17:16:40;;;;;;;51.63;21.53;;;-1.30;97.30;;;;;;4898966;29;20453;-75
2021/01/10 17:19:06;;;;;;;55.07;20.90;;;-1.20;97.30;;;;;;4897647;29;20904;-74
2021/01/10 17:21:33;;;;;;;53.63;21.90;;;-1.20;97.30;;;;;;4899836;29;20441;-74
2021/01/10 17:23:59;;;;;;;53.50;21.33;;;-1.20;97.30;;;;;;4898316;29;20422;-74
2021/01/10 17:26:26;;;;;;;47.10;21.50;;;-1.20;97.30;;;;;;4898550;29;20433;-74
2021/01/10 17:28:52;;;;;;;43.37;19.83;;;-1.20;97.30;;;;;;4898975;29;20193;-74
2021/01/10 17:31:18;;;;;;;43.23;19.40;;;-1.20;97.30;;;;;;4898795;29;20861;-75
2021/01/10 17:33:45;;;;;;;49.40;19.97;;;-1.20;97.30;;;;;;4899298;29;20529;-74
2021/01/10 17:36:12;;;;;;;43.40;18.63;;;-1.30;97.30;;;;;;4899962;29;20516;-74
2021/01/10 17:38:38;;;;;;;44.37;20.37;;;-1.30;97.30;;;;;;4898607;29;20421;-74
2021/01/10 17:41:04;;;;;;;46.57;19.53;;;-1.30;97.30;;;;;;4898512;29;20477;-74
2021/01/10 17:43:30;;;;;;;40.30;19.73;;;-1.30;97.30;;;;;;4899263;29;20430;-74
2021/01/10 17:45:56;;;;;;;47.70;19.27;;;-1.30;97.30;;;;;;4898886;29;20477;-74
2021/01/10 17:48:22;;;;;;;49.00;20.57;;;-1.40;97.30;;;;;;4898740;29;20191;-74
2021/01/10 17:50:47;;;;;;;54.20;22.50;;;-1.40;97.30;;;;;;4899501;29;20262;-74
2021/01/10 17:53:13;;;;;;;49.83;23.17;;;-1.50;97.30;;;;;;4899457;29;20594;-74
2021/01/10 17:55:39;;;;;;;50.70;20.40;;;-1.50;97.30;;;;;;4898079;29;20249;-74
2021/01/10 17:58:04;;;;;;;52.03;21.90;;;-1.50;97.30;;;;;;4898419;29;20224;-74
2021/01/10 18:00:30;;;;;;;56.50;22.30;;;-1.60;97.30;;;;;;4898396;29;20208;-75
2021/01/10 18:02:56;;;;;;;55.10;23.70;;;-1.60;97.30;;;;;;4898622;29;20188;-74
2021/01/10 18:05:22;;;;;;;48.33;20.60;;;-1.30;97.30;;;;;;4898195;29;20719;-75
2021/01/10 18:07:47;;;;;;;50.63;22.53;;;-1.30;97.30;;;;;;4899216;29;20425;-74
2021/01/10 18:10:15;;;;;;;49.20;22.10;;;-1.40;97.30;;;;;;4897364;29;20184;-73
2021/01/10 18:12:41;;;;;;;52.70;22.83;;;-1.50;97.30;;;;;;4899178;29;20205;-73
2021/01/10 18:15:08;;;;;;;51.17;20.97;;;-1.70;97.30;;;;;;4899475;29;20426;-73
2021/01/10 18:17:37;;;;;;;52.40;22.63;;;-1.80;97.30;;;;;;4897307;29;20185;-73
2021/01/10 18:20:07;;;;;;;50.17;21.90;;;-1.80;97.30;;;;;;4898941;29;20505;-73
2021/01/10 18:22:35;;;;;;;59.00;22.33;;;-1.80;97.30;;;;;;4897569;29;20446;-74
2021/01/10 18:25:00;;;;;;;52.60;21.73;;;-1.80;97.30;;;;;;4898373;29;20426;-72
2021/01/10 18:27:28;;;;;;;43.47;19.13;;;-1.80;97.30;;;;;;4897560;29;20450;-72
2021/01/10 18:29:54;;;;;;;49.47;20.77;;;-1.70;97.30;;;;;;4897283;29;20188;-73
2021/01/10 18:32:20;;;;;;;49.40;20.40;;;-1.70;97.30;;;;;;4897268;29;20469;-72
2021/01/10 18:34:46;;;;;;;39.50;17.57;;;-1.80;97.30;;;;;;4897482;29;20432;-73
2021/01/10 18:37:12;;;;;;;48.83;22.20;;;-1.80;97.30;;;;;;4898684;29;20900;-73
2021/01/10 18:39:38;;;;;;;39.37;18.80;;;-1.80;97.30;;;;;;4898288;29;20231;-72
2021/01/10 18:42:05;;;;;;;63.07;24.10;;;-1.90;97.30;;;;;;4897573;29;20956;-73